WAT518 ESGG-EHAM
Flight info
| Callsign | WAT518 |
|---|---|
| Flight time | N/A |
| Altitude | 38000 |
| Route | VADIN DCT ABINO DCT ATTUS DCT ROCZO DCT BLUFA |
| Aircraft | A346/H-SDE2E3FGHIJ3J4J5M1RWXY/LB1D1 |
Departure
| Time | 2026-05-06 07:03 |
|---|---|
| Airport | Göteborg Landvetter Airport (ESGG) |
Arrival
| Time | N/A |
|---|---|
| Airport | Amsterdam Airport Schiphol (EHAM) |
| Time | Latitude | Longitude | Altitude | Speed | Heading |
|---|---|---|---|---|---|
| 2026-05-06 06:31 | 57.66545 | 12.29063 | 523 ft | 0 kts | 117° |
| 2026-05-06 06:51 | 57.66547 | 12.29056 | 524 ft | 3 kts | 117° |
| 2026-05-06 06:51 | 57.66556 | 12.29022 | 522 ft | 3 kts | 116° |
| 2026-05-06 06:51 | 57.66564 | 12.28996 | 520 ft | 4 kts | 135° |
| 2026-05-06 06:52 | 57.66575 | 12.28982 | 517 ft | 4 kts | 167° |
| 2026-05-06 06:52 | 57.66592 | 12.28982 | 517 ft | 4 kts | 194° |
| 2026-05-06 06:52 | 57.66609 | 12.28994 | 517 ft | 3 kts | 206° |
| 2026-05-06 06:52 | 57.66627 | 12.29010 | 517 ft | 4 kts | 206° |
| 2026-05-06 06:53 | 57.66644 | 12.29026 | 517 ft | 2 kts | 206° |
| 2026-05-06 06:53 | 57.66646 | 12.29028 | 517 ft | 0 kts | 206° |
| 2026-05-06 06:58 | 57.66647 | 12.29029 | 518 ft | 0 kts | 201° |
| 2026-05-06 06:58 | 57.66646 | 12.29028 | 518 ft | 0 kts | 204° |
| 2026-05-06 06:59 | 57.66645 | 12.29027 | 518 ft | 0 kts | 210° |
| 2026-05-06 06:59 | 57.66639 | 12.29011 | 518 ft | 4 kts | 240° |
| 2026-05-06 06:59 | 57.66630 | 12.28919 | 514 ft | 11 kts | 277° |
| 2026-05-06 06:59 | 57.66666 | 12.28784 | 512 ft | 14 kts | 295° |
| 2026-05-06 07:00 | 57.66744 | 12.28746 | 514 ft | 13 kts | 21° |
| 2026-05-06 07:00 | 57.66828 | 12.28813 | 515 ft | 14 kts | 24° |
| 2026-05-06 07:00 | 57.66903 | 12.28878 | 519 ft | 13 kts | 26° |
| 2026-05-06 07:00 | 57.67003 | 12.28972 | 519 ft | 19 kts | 27° |
| 2026-05-06 07:01 | 57.67126 | 12.29086 | 521 ft | 22 kts | 25° |
| 2026-05-06 07:01 | 57.67271 | 12.29212 | 520 ft | 24 kts | 25° |
| 2026-05-06 07:01 | 57.67418 | 12.29302 | 519 ft | 25 kts | 343° |
| 2026-05-06 07:01 | 57.67428 | 12.29034 | 517 ft | 26 kts | 220° |
| 2026-05-06 07:02 | 57.67286 | 12.28882 | 520 ft | 29 kts | 206° |
| 2026-05-06 07:02 | 57.67091 | 12.28706 | 524 ft | 39 kts | 205° |
| 2026-05-06 07:02 | 57.66662 | 12.28324 | 521 ft | 114 kts | 205° |
| 2026-05-06 07:02 | 57.65769 | 12.27518 | 546 ft | 182 kts | 208° |
| 2026-05-06 07:03 | 57.64700 | 12.26358 | 1021 ft | 188 kts | 206° |
| 2026-05-06 07:03 | 57.63724 | 12.25446 | 1184 ft | 166 kts | 206° |
| 2026-05-06 07:03 | 57.62747 | 12.24567 | 1452 ft | 175 kts | 202° |
| 2026-05-06 07:03 | 57.61724 | 12.23701 | 2016 ft | 180 kts | 200° |
| 2026-05-06 07:04 | 57.60740 | 12.23069 | 2449 ft | 192 kts | 190° |
| 2026-05-06 07:04 | 57.59517 | 12.22778 | 2971 ft | 203 kts | 180° |
| 2026-05-06 07:04 | 57.58201 | 12.22705 | 3555 ft | 214 kts | 179° |
| 2026-05-06 07:04 | 57.56767 | 12.22662 | 4186 ft | 225 kts | 180° |
| 2026-05-06 07:05 | 57.55245 | 12.22548 | 4705 ft | 240 kts | 184° |
| 2026-05-06 07:05 | 57.53638 | 12.22247 | 5221 ft | 256 kts | 185° |
| 2026-05-06 07:05 | 57.51950 | 12.21901 | 5875 ft | 268 kts | 186° |
| 2026-05-06 07:05 | 57.50268 | 12.21555 | 6696 ft | 272 kts | 187° |
| 2026-05-06 07:06 | 57.48571 | 12.21200 | 7570 ft | 273 kts | 187° |
| 2026-05-06 07:06 | 57.46815 | 12.20834 | 8489 ft | 276 kts | 188° |
| 2026-05-06 07:06 | 57.44967 | 12.20383 | 9417 ft | 279 kts | 194° |
| 2026-05-06 07:06 | 57.43250 | 12.19121 | 10272 ft | 279 kts | 214° |
| 2026-05-06 07:07 | 57.42286 | 12.17763 | 10726 ft | 283 kts | 225° |
| 2026-05-06 07:07 | 57.40959 | 12.15316 | 11267 ft | 296 kts | 227° |
| 2026-05-06 07:07 | 57.39591 | 12.12673 | 11768 ft | 312 kts | 228° |
| 2026-05-06 07:07 | 57.38136 | 12.09870 | 12251 ft | 328 kts | 227° |
| 2026-05-06 07:08 | 57.36587 | 12.06918 | 12725 ft | 344 kts | 227° |
| 2026-05-06 07:08 | 57.34996 | 12.03916 | 13370 ft | 353 kts | 227° |
| 2026-05-06 07:08 | 57.33371 | 12.00865 | 14146 ft | 352 kts | 227° |
| 2026-05-06 07:08 | 57.31822 | 11.97957 | 14761 ft | 358 kts | 227° |
| 2026-05-06 07:09 | 57.30127 | 11.94780 | 15607 ft | 360 kts | 227° |
| 2026-05-06 07:09 | 57.28403 | 11.91559 | 16482 ft | 361 kts | 227° |
| 2026-05-06 07:09 | 57.26693 | 11.88370 | 17316 ft | 364 kts | 227° |
| 2026-05-06 07:09 | 57.24937 | 11.85099 | 18150 ft | 367 kts | 227° |
| 2026-05-06 07:10 | 57.23172 | 11.81817 | 18881 ft | 370 kts | 227° |
| 2026-05-06 07:10 | 57.21403 | 11.78531 | 19604 ft | 371 kts | 227° |
| 2026-05-06 07:10 | 57.19615 | 11.75216 | 20366 ft | 373 kts | 227° |
| 2026-05-06 07:10 | 57.17939 | 11.72118 | 21083 ft | 374 kts | 227° |
| 2026-05-06 07:11 | 57.16079 | 11.68682 | 21851 ft | 375 kts | 227° |
| 2026-05-06 07:11 | 57.14250 | 11.65457 | 22485 ft | 382 kts | 224° |
| 2026-05-06 07:11 | 57.12201 | 11.62424 | 22878 ft | 393 kts | 220° |
| 2026-05-06 07:11 | 57.10077 | 11.59459 | 23477 ft | 396 kts | 220° |
| 2026-05-06 07:12 | 57.07919 | 11.56470 | 24110 ft | 397 kts | 220° |
| 2026-05-06 07:12 | 57.05768 | 11.53479 | 24713 ft | 398 kts | 220° |
| 2026-05-06 07:12 | 57.03625 | 11.50487 | 25275 ft | 401 kts | 220° |
| 2026-05-06 07:12 | 57.01585 | 11.47630 | 25809 ft | 402 kts | 220° |
| 2026-05-06 07:13 | 56.99597 | 11.44836 | 26321 ft | 404 kts | 220° |
| 2026-05-06 07:13 | 56.97427 | 11.41785 | 26852 ft | 407 kts | 220° |
| 2026-05-06 07:13 | 56.95268 | 11.38750 | 27372 ft | 409 kts | 220° |
| 2026-05-06 07:13 | 56.93158 | 11.35788 | 27872 ft | 412 kts | 220° |
| 2026-05-06 07:14 | 56.91098 | 11.32818 | 28388 ft | 413 kts | 221° |
| 2026-05-06 07:14 | 56.89044 | 11.29734 | 29041 ft | 411 kts | 221° |
| 2026-05-06 07:14 | 56.86906 | 11.26497 | 29829 ft | 407 kts | 221° |
| 2026-05-06 07:14 | 56.84814 | 11.23329 | 30527 ft | 404 kts | 221° |
| 2026-05-06 07:15 | 56.82737 | 11.20195 | 31123 ft | 403 kts | 221° |
| 2026-05-06 07:15 | 56.80653 | 11.17060 | 31705 ft | 402 kts | 221° |
| 2026-05-06 07:15 | 56.78537 | 11.13886 | 32310 ft | 400 kts | 221° |
| 2026-05-06 07:15 | 56.76494 | 11.10828 | 32913 ft | 398 kts | 221° |
| 2026-05-06 07:16 | 56.74445 | 11.07767 | 33505 ft | 397 kts | 221° |
| 2026-05-06 07:16 | 56.72374 | 11.04680 | 34083 ft | 395 kts | 221° |
| 2026-05-06 07:16 | 56.70301 | 11.01595 | 34523 ft | 395 kts | 221° |
| 2026-05-06 07:16 | 56.68331 | 10.98669 | 34865 ft | 397 kts | 221° |
| 2026-05-06 07:17 | 56.66264 | 10.95602 | 35175 ft | 399 kts | 221° |
| 2026-05-06 07:17 | 56.64146 | 10.92464 | 35491 ft | 401 kts | 221° |
| 2026-05-06 07:17 | 56.62033 | 10.89335 | 35793 ft | 403 kts | 220° |
| 2026-05-06 07:17 | 56.59895 | 10.86174 | 36107 ft | 405 kts | 220° |
| 2026-05-06 07:18 | 56.57755 | 10.83020 | 36387 ft | 408 kts | 220° |
| 2026-05-06 07:18 | 56.55551 | 10.79777 | 36612 ft | 411 kts | 220° |
| 2026-05-06 07:18 | 56.53342 | 10.76531 | 36858 ft | 414 kts | 220° |
| 2026-05-06 07:18 | 56.51159 | 10.73327 | 37085 ft | 417 kts | 220° |
| 2026-05-06 07:19 | 56.48918 | 10.70043 | 37329 ft | 420 kts | 220° |
| 2026-05-06 07:19 | 56.46662 | 10.66744 | 37559 ft | 422 kts | 220° |
| 2026-05-06 07:19 | 56.44408 | 10.63452 | 37764 ft | 425 kts | 220° |
| 2026-05-06 07:19 | 56.42127 | 10.60125 | 37948 ft | 428 kts | 220° |
| 2026-05-06 07:20 | 56.39831 | 10.56781 | 37940 ft | 429 kts | 220° |
| 2026-05-06 07:20 | 56.35217 | 10.50070 | 37939 ft | 430 kts | 220° |
| 2026-05-06 07:21 | 56.30667 | 10.43487 | 37948 ft | 430 kts | 220° |
| 2026-05-06 07:21 | 56.26150 | 10.36972 | 37947 ft | 430 kts | 220° |
| 2026-05-06 07:22 | 56.21550 | 10.30358 | 37941 ft | 430 kts | 220° |
| 2026-05-06 07:22 | 56.17052 | 10.23904 | 37931 ft | 431 kts | 220° |
| 2026-05-06 07:23 | 56.12415 | 10.17267 | 37921 ft | 432 kts | 219° |
| 2026-05-06 07:23 | 56.07692 | 10.10535 | 37929 ft | 432 kts | 219° |
| 2026-05-06 07:24 | 56.03002 | 10.03876 | 37936 ft | 432 kts | 219° |
| 2026-05-06 07:24 | 55.98271 | 9.97178 | 38312 ft | 435 kts | 219° |
| 2026-05-06 07:24 | 55.95912 | 9.93849 | 38665 ft | 434 kts | 219° |
| 2026-05-06 07:25 | 55.93592 | 9.90577 | 38872 ft | 435 kts | 219° |
| 2026-05-06 07:25 | 55.91232 | 9.87252 | 39053 ft | 436 kts | 219° |
| 2026-05-06 07:25 | 55.88879 | 9.83939 | 39206 ft | 437 kts | 219° |
| 2026-05-06 07:25 | 55.86569 | 9.80696 | 39375 ft | 438 kts | 219° |
| 2026-05-06 07:26 | 55.84205 | 9.77382 | 39566 ft | 438 kts | 219° |
| 2026-05-06 07:26 | 55.82177 | 9.74544 | 39714 ft | 438 kts | 219° |
| 2026-05-06 07:26 | 55.79812 | 9.71240 | 39882 ft | 439 kts | 219° |
| 2026-05-06 07:27 | 55.75095 | 9.64663 | 39917 ft | 440 kts | 219° |
| 2026-05-06 07:27 | 55.70210 | 9.57872 | 39922 ft | 449 kts | 219° |
| 2026-05-06 07:28 | 55.65320 | 9.51101 | 39921 ft | 442 kts | 219° |
| 2026-05-06 07:28 | 55.58224 | 9.41312 | 39912 ft | 441 kts | 219° |
| 2026-05-06 07:29 | 55.53525 | 9.34854 | 39924 ft | 441 kts | 219° |
| 2026-05-06 07:29 | 55.48708 | 9.28253 | 39922 ft | 450 kts | 219° |
| 2026-05-06 07:30 | 55.43816 | 9.21577 | 39920 ft | 458 kts | 218° |
| 2026-05-06 07:30 | 55.38841 | 9.14824 | 39914 ft | 462 kts | 218° |
| 2026-05-06 07:31 | 55.33856 | 9.08077 | 39922 ft | 463 kts | 218° |
| 2026-05-06 07:31 | 55.28876 | 9.01349 | 39921 ft | 463 kts | 218° |
| 2026-05-06 07:32 | 55.24159 | 8.94994 | 39920 ft | 463 kts | 218° |
| 2026-05-06 07:32 | 55.19415 | 8.88619 | 39901 ft | 463 kts | 218° |
| 2026-05-06 07:33 | 55.14442 | 8.81953 | 39914 ft | 464 kts | 218° |
| 2026-05-06 07:33 | 55.09725 | 8.75658 | 39931 ft | 465 kts | 218° |
| 2026-05-06 07:34 | 55.04890 | 8.69223 | 39923 ft | 465 kts | 218° |
| 2026-05-06 07:34 | 54.99997 | 8.62713 | 39920 ft | 465 kts | 218° |
| 2026-05-06 07:35 | 54.95032 | 8.56129 | 39911 ft | 465 kts | 218° |
| 2026-05-06 07:35 | 54.90122 | 8.49645 | 39925 ft | 466 kts | 218° |
| 2026-05-06 07:36 | 54.85357 | 8.43381 | 39919 ft | 466 kts | 218° |
| 2026-05-06 07:36 | 54.80400 | 8.36889 | 39926 ft | 466 kts | 218° |
| 2026-05-06 07:37 | 54.75457 | 8.30426 | 39917 ft | 466 kts | 218° |
| 2026-05-06 07:37 | 54.70488 | 8.23942 | 39912 ft | 467 kts | 218° |
| 2026-05-06 07:38 | 54.65502 | 8.17463 | 39917 ft | 467 kts | 218° |
| 2026-05-06 07:38 | 54.60716 | 8.11268 | 39917 ft | 467 kts | 218° |
| 2026-05-06 07:39 | 54.55773 | 8.04876 | 39922 ft | 468 kts | 218° |
| 2026-05-06 07:39 | 54.51276 | 7.99080 | 39919 ft | 468 kts | 217° |
| 2026-05-06 07:40 | 54.46297 | 7.92720 | 39915 ft | 469 kts | 217° |
| 2026-05-06 07:40 | 54.41332 | 7.86390 | 39920 ft | 469 kts | 217° |
| 2026-05-06 07:41 | 54.36535 | 7.80285 | 39915 ft | 469 kts | 217° |
| 2026-05-06 07:41 | 54.31859 | 7.74349 | 39909 ft | 455 kts | 217° |
| 2026-05-06 07:42 | 54.27432 | 7.68742 | 39907 ft | 449 kts | 217° |
| 2026-05-06 07:42 | 54.22975 | 7.63107 | 39906 ft | 449 kts | 217° |
| 2026-05-06 07:43 | 54.18563 | 7.57546 | 39907 ft | 450 kts | 217° |
| 2026-05-06 07:43 | 54.14185 | 7.52042 | 39909 ft | 450 kts | 217° |
| 2026-05-06 07:44 | 54.09750 | 7.46481 | 39904 ft | 450 kts | 217° |
| 2026-05-06 07:44 | 54.05349 | 7.40978 | 39904 ft | 450 kts | 216° |
| 2026-05-06 07:45 | 54.00876 | 7.35400 | 39895 ft | 450 kts | 216° |
| 2026-05-06 07:45 | 53.96327 | 7.29741 | 39897 ft | 450 kts | 216° |
| 2026-05-06 07:46 | 53.91776 | 7.24096 | 39889 ft | 450 kts | 216° |
| 2026-05-06 07:46 | 53.87264 | 7.18517 | 39889 ft | 450 kts | 216° |
| 2026-05-06 07:47 | 53.82706 | 7.12895 | 39885 ft | 450 kts | 216° |
| 2026-05-06 07:47 | 53.78091 | 7.07217 | 39882 ft | 451 kts | 216° |
| 2026-05-06 07:48 | 53.73351 | 7.01404 | 39876 ft | 451 kts | 216° |
| 2026-05-06 07:48 | 53.68783 | 6.95817 | 39878 ft | 451 kts | 216° |
| 2026-05-06 07:49 | 53.64044 | 6.90037 | 39869 ft | 452 kts | 216° |
| 2026-05-06 07:49 | 53.59330 | 6.84304 | 39704 ft | 448 kts | 216° |
| 2026-05-06 07:50 | 53.54436 | 6.78366 | 39365 ft | 447 kts | 216° |
| 2026-05-06 07:50 | 53.51919 | 6.75318 | 38602 ft | 454 kts | 216° |
| 2026-05-06 07:50 | 53.49353 | 6.72212 | 37635 ft | 460 kts | 215° |
| 2026-05-06 07:51 | 53.46759 | 6.69085 | 36904 ft | 461 kts | 215° |
| 2026-05-06 07:51 | 53.44167 | 6.65966 | 36302 ft | 459 kts | 215° |
| 2026-05-06 07:51 | 53.41668 | 6.62637 | 35658 ft | 458 kts | 223° |
| 2026-05-06 07:51 | 53.39520 | 6.58713 | 35040 ft | 458 kts | 228° |
| 2026-05-06 07:52 | 53.37513 | 6.54686 | 34477 ft | 456 kts | 229° |
| 2026-05-06 07:52 | 53.35517 | 6.50641 | 33864 ft | 455 kts | 229° |
| 2026-05-06 07:52 | 53.33605 | 6.46777 | 33166 ft | 455 kts | 228° |
| 2026-05-06 07:52 | 53.31655 | 6.42857 | 32388 ft | 456 kts | 228° |
| 2026-05-06 07:53 | 53.29638 | 6.38823 | 31523 ft | 460 kts | 228° |
| 2026-05-06 07:53 | 53.27587 | 6.34735 | 30646 ft | 463 kts | 227° |
| 2026-05-06 07:53 | 53.25607 | 6.30799 | 29800 ft | 467 kts | 227° |
| 2026-05-06 07:53 | 53.23527 | 6.26683 | 28822 ft | 469 kts | 227° |
| 2026-05-06 07:54 | 53.21428 | 6.22540 | 28033 ft | 468 kts | 227° |
| 2026-05-06 07:54 | 53.19337 | 6.18414 | 27479 ft | 462 kts | 228° |
| 2026-05-06 07:54 | 53.17276 | 6.14352 | 27000 ft | 455 kts | 228° |
| 2026-05-06 07:54 | 53.15928 | 6.11697 | 26699 ft | 451 kts | 228° |
| 2026-05-06 07:55 | 53.13242 | 6.06413 | 26028 ft | 443 kts | 228° |
| 2026-05-06 07:55 | 53.11935 | 6.03844 | 25660 ft | 441 kts | 228° |
| 2026-05-06 07:55 | 53.09990 | 6.00023 | 25071 ft | 437 kts | 228° |
| 2026-05-06 07:55 | 53.08170 | 5.96453 | 24532 ft | 435 kts | 228° |
| 2026-05-06 07:56 | 53.06230 | 5.92661 | 23890 ft | 434 kts | 228° |
| 2026-05-06 07:56 | 53.04273 | 5.88841 | 23305 ft | 431 kts | 228° |
| 2026-05-06 07:56 | 53.02348 | 5.85090 | 22707 ft | 426 kts | 228° |
| 2026-05-06 07:56 | 53.00473 | 5.81443 | 22112 ft | 424 kts | 229° |
| 2026-05-06 07:57 | 52.98744 | 5.78084 | 21534 ft | 421 kts | 229° |
| 2026-05-06 07:57 | 52.96848 | 5.74405 | 20994 ft | 417 kts | 229° |
| 2026-05-06 07:57 | 52.94979 | 5.70790 | 20342 ft | 415 kts | 229° |
| 2026-05-06 07:57 | 52.93105 | 5.67166 | 19688 ft | 415 kts | 229° |
| 2026-05-06 07:58 | 52.91258 | 5.63601 | 19141 ft | 412 kts | 229° |
| 2026-05-06 07:58 | 52.89374 | 5.59967 | 18541 ft | 411 kts | 229° |
| 2026-05-06 07:58 | 52.87486 | 5.56333 | 17895 ft | 410 kts | 229° |
| 2026-05-06 07:58 | 52.85664 | 5.52823 | 17289 ft | 408 kts | 230° |
| 2026-05-06 07:59 | 52.83853 | 5.49342 | 16711 ft | 405 kts | 229° |
| 2026-05-06 07:59 | 52.82052 | 5.45885 | 16147 ft | 402 kts | 229° |
| 2026-05-06 07:59 | 52.80243 | 5.42422 | 15657 ft | 399 kts | 229° |
| 2026-05-06 07:59 | 52.78443 | 5.38977 | 15123 ft | 395 kts | 229° |
| 2026-05-06 08:00 | 52.76653 | 5.35558 | 14515 ft | 394 kts | 229° |
| 2026-05-06 08:00 | 52.74875 | 5.32168 | 14032 ft | 390 kts | 229° |
| 2026-05-06 08:00 | 52.73108 | 5.28802 | 13581 ft | 386 kts | 229° |
| 2026-05-06 08:00 | 52.71362 | 5.25481 | 13055 ft | 381 kts | 229° |
| 2026-05-06 08:01 | 52.69693 | 5.22316 | 12622 ft | 377 kts | 229° |
| 2026-05-06 08:01 | 52.68001 | 5.19106 | 12159 ft | 372 kts | 230° |
| 2026-05-06 08:01 | 52.66329 | 5.15933 | 11701 ft | 367 kts | 230° |
| 2026-05-06 08:01 | 52.64710 | 5.12867 | 11265 ft | 363 kts | 230° |
| 2026-05-06 08:02 | 52.63069 | 5.09768 | 10816 ft | 360 kts | 230° |
| 2026-05-06 08:02 | 52.61443 | 5.06705 | 10565 ft | 350 kts | 230° |
| 2026-05-06 08:02 | 52.59897 | 5.03785 | 10474 ft | 335 kts | 230° |
| 2026-05-06 08:02 | 52.58420 | 5.01000 | 10373 ft | 323 kts | 230° |
| 2026-05-06 08:03 | 52.56995 | 4.98324 | 10246 ft | 312 kts | 231° |
| 2026-05-06 08:03 | 52.55640 | 4.95779 | 10105 ft | 295 kts | 231° |
| 2026-05-06 08:03 | 52.54789 | 4.94180 | 10060 ft | 285 kts | 230° |
| 2026-05-06 08:03 | 52.53852 | 4.92423 | 10015 ft | 280 kts | 230° |
| 2026-05-06 08:04 | 52.52663 | 4.90183 | 9967 ft | 278 kts | 230° |
| 2026-05-06 08:04 | 52.51474 | 4.87958 | 9871 ft | 279 kts | 231° |
| 2026-05-06 08:04 | 52.50221 | 4.85617 | 9503 ft | 277 kts | 231° |
| 2026-05-06 08:04 | 52.49169 | 4.83633 | 9228 ft | 278 kts | 231° |
| 2026-05-06 08:05 | 52.47927 | 4.81293 | 8895 ft | 278 kts | 225° |
| 2026-05-06 08:05 | 52.46598 | 4.79406 | 8399 ft | 284 kts | 219° |
| 2026-05-06 08:05 | 52.45062 | 4.77488 | 8023 ft | 284 kts | 218° |
| 2026-05-06 08:05 | 52.43537 | 4.75612 | 7661 ft | 285 kts | 218° |
| 2026-05-06 08:06 | 52.42064 | 4.73757 | 7305 ft | 285 kts | 220° |
| 2026-05-06 08:06 | 52.40651 | 4.71796 | 7001 ft | 284 kts | 221° |
| 2026-05-06 08:06 | 52.39211 | 4.69717 | 6718 ft | 281 kts | 222° |
| 2026-05-06 08:06 | 52.37868 | 4.67749 | 6434 ft | 279 kts | 222° |
| 2026-05-06 08:07 | 52.36554 | 4.65814 | 6106 ft | 279 kts | 222° |
| 2026-05-06 08:07 | 52.35194 | 4.63799 | 5727 ft | 280 kts | 222° |
| 2026-05-06 08:07 | 52.33794 | 4.61710 | 5302 ft | 284 kts | 222° |
| 2026-05-06 08:07 | 52.32413 | 4.59633 | 4995 ft | 283 kts | 222° |
| 2026-05-06 08:08 | 52.31024 | 4.57531 | 4698 ft | 281 kts | 222° |
| 2026-05-06 08:08 | 52.29653 | 4.55448 | 4532 ft | 274 kts | 222° |
| 2026-05-06 08:08 | 52.28273 | 4.53347 | 4364 ft | 266 kts | 222° |
| 2026-05-06 08:08 | 52.26981 | 4.51378 | 4214 ft | 259 kts | 222° |
| 2026-05-06 08:09 | 52.25721 | 4.49458 | 4064 ft | 252 kts | 222° |
| 2026-05-06 08:09 | 52.24479 | 4.47575 | 3909 ft | 246 kts | 222° |
| 2026-05-06 08:09 | 52.23275 | 4.45778 | 3752 ft | 239 kts | 216° |
| 2026-05-06 08:09 | 52.21842 | 4.44671 | 3510 ft | 232 kts | 189° |
| 2026-05-06 08:10 | 52.20342 | 4.44407 | 3231 ft | 226 kts | 163° |
| 2026-05-06 08:10 | 52.19042 | 4.45596 | 3010 ft | 213 kts | 123° |
| 2026-05-06 08:10 | 52.18448 | 4.47740 | 2931 ft | 206 kts | 92° |
| 2026-05-06 08:10 | 52.18598 | 4.49926 | 2808 ft | 199 kts | 65° |
| 2026-05-06 08:11 | 52.19256 | 4.51549 | 2647 ft | 195 kts | 46° |
| 2026-05-06 08:11 | 52.20200 | 4.52814 | 2487 ft | 194 kts | 39° |
| 2026-05-06 08:11 | 52.21138 | 4.54190 | 2369 ft | 184 kts | 47° |
| 2026-05-06 08:11 | 52.21868 | 4.55646 | 2315 ft | 171 kts | 53° |
| 2026-05-06 08:12 | 52.22514 | 4.57095 | 2283 ft | 164 kts | 55° |
| 2026-05-06 08:12 | 52.23100 | 4.58527 | 2192 ft | 157 kts | 57° |
| 2026-05-06 08:12 | 52.23656 | 4.59960 | 1932 ft | 147 kts | 58° |
| 2026-05-06 08:12 | 52.24176 | 4.61329 | 1758 ft | 145 kts | 57° |
| 2026-05-06 08:13 | 52.24681 | 4.62654 | 1594 ft | 145 kts | 57° |
| 2026-05-06 08:13 | 52.25188 | 4.63988 | 1421 ft | 144 kts | 57° |
| 2026-05-06 08:13 | 52.25688 | 4.65299 | 1231 ft | 144 kts | 57° |
| 2026-05-06 08:13 | 52.26200 | 4.66641 | 1023 ft | 143 kts | 56° |
| 2026-05-06 08:14 | 52.26695 | 4.67942 | 815 ft | 143 kts | 56° |
| 2026-05-06 08:14 | 52.27181 | 4.69242 | 607 ft | 143 kts | 56° |
| 2026-05-06 08:14 | 52.27681 | 4.70577 | 424 ft | 143 kts | 55° |
| 2026-05-06 08:14 | 52.28151 | 4.71835 | 323 ft | 139 kts | 54° |
| 2026-05-06 08:15 | 52.28672 | 4.73126 | 123 ft | 141 kts | 54° |
| 2026-05-06 08:15 | 52.29115 | 4.74283 | 23 ft | 131 kts | 56° |
| 2026-05-06 08:15 | 52.29449 | 4.75138 | 7 ft | 87 kts | 56° |